createdAt,value
2019-05-23T00:02:09.619Z,91.32
2019-05-23T00:04:43.244Z,91.60
2019-05-23T00:07:16.390Z,91.70
2019-05-23T00:09:43.161Z,91.60
2019-05-23T00:12:29.509Z,91.54
2019-05-23T00:15:00.393Z,91.58
2019-05-23T00:20:18.033Z,91.70
2019-05-23T00:22:44.893Z,91.75
2019-05-23T00:25:14.082Z,91.92
2019-05-23T00:27:42.443Z,91.94
2019-05-23T00:30:12.304Z,92.05
2019-05-23T00:32:46.433Z,92.11
2019-05-23T00:35:14.419Z,92.50
2019-05-23T00:37:42.686Z,92.75
2019-05-23T00:40:11.998Z,92.93
2019-05-23T00:42:39.571Z,93.14
2019-05-23T00:45:07.074Z,93.23
2019-05-23T00:47:33.734Z,93.11
2019-05-23T00:50:01.515Z,92.88
2019-05-23T00:52:29.161Z,92.85
2019-05-23T00:54:57.540Z,92.80
2019-05-23T00:57:27.108Z,92.78
2019-05-23T00:59:54.388Z,92.78
2019-05-23T01:02:21.150Z,92.97
2019-05-23T01:04:48.638Z,92.95
2019-05-23T01:07:16.536Z,92.96
2019-05-23T01:09:43.572Z,92.92
2019-05-23T01:12:11.959Z,92.93
2019-05-23T01:14:38.618Z,93.04
2019-05-23T01:17:07.748Z,93.10
2019-05-23T01:19:34.824Z,93.15
2019-05-23T01:22:04.548Z,93.13
2019-05-23T01:24:34.611Z,93.31
2019-05-23T01:27:04.374Z,93.35
2019-05-23T01:29:38.868Z,93.40
2019-05-23T01:32:13.984Z,93.50
2019-05-23T01:34:41.532Z,93.62
2019-05-23T01:37:09.753Z,93.66
2019-05-23T01:39:37.126Z,93.77
2019-05-23T01:42:04.808Z,93.95
2019-05-23T01:44:32.086Z,94.02
2019-05-23T01:46:59.574Z,94.10
2019-05-23T01:49:26.534Z,94.12
2019-05-23T01:51:54.129Z,94.10
2019-05-23T01:54:21.222Z,94.39
2019-05-23T01:56:48.610Z,94.51
2019-05-23T01:59:15.916Z,94.71
2019-05-23T02:01:43.719Z,94.72
2019-05-23T02:04:10.899Z,94.80
2019-05-23T02:06:38.331Z,94.91
2019-05-23T02:09:07.224Z,95.04
2019-05-23T02:11:34.815Z,94.81
2019-05-23T02:14:03.524Z,94.54
2019-05-23T02:16:31.110Z,94.38
2019-05-23T02:18:57.978Z,94.46
2019-05-23T02:21:26.478Z,94.41
2019-05-23T02:23:53.659Z,94.42
2019-05-23T02:26:21.567Z,94.37
2019-05-23T02:28:48.459Z,94.41
2019-05-23T02:31:36.562Z,94.64
2019-05-23T02:34:04.670Z,94.60
2019-05-23T02:36:31.635Z,94.57
2019-05-23T02:39:16.770Z,94.63
2019-05-23T02:41:51.216Z,94.59
2019-05-23T02:44:20.739Z,94.52
2019-05-23T02:46:59.600Z,94.75
2019-05-23T02:49:30.275Z,94.89
2019-05-23T02:51:59.682Z,94.82
2019-05-23T02:54:29.679Z,94.82
2019-05-23T02:56:59.087Z,94.87
2019-05-23T02:59:55.448Z,94.92
2019-05-23T03:02:57.787Z,95.02
2019-05-23T03:05:25.679Z,95.11
2019-05-23T03:07:53.367Z,95.07
2019-05-23T03:10:23.669Z,95.08
2019-05-23T03:12:52.256Z,95.15
2019-05-23T03:15:21.126Z,95.19
2019-05-23T03:17:51.929Z,95.17
2019-05-23T03:20:19.831Z,95.35
2019-05-23T03:22:53.886Z,95.57
2019-05-23T03:26:03.196Z,95.77
2019-05-23T03:28:38.588Z,95.91
2019-05-23T03:31:28.754Z,95.83
2019-05-23T03:33:40.240Z,95.85
2019-05-23T03:36:07.788Z,95.92
2019-05-23T03:38:34.865Z,95.97
2019-05-23T03:41:03.818Z,95.91
2019-05-23T03:43:31.111Z,95.95
2019-05-23T03:46:02.606Z,95.96
2019-05-23T03:48:30.687Z,96.03
2019-05-23T03:50:58.943Z,96.10
2019-05-23T03:53:27.630Z,96.08
2019-05-23T03:55:56.866Z,96.09
2019-05-23T03:58:24.782Z,96.10
2019-05-23T04:00:54.076Z,96.08
2019-05-23T04:03:21.727Z,96.12
2019-05-23T04:05:48.891Z,96.08
2019-05-23T04:08:16.525Z,96.13
2019-05-23T04:10:43.600Z,95.84
2019-05-23T04:13:10.875Z,95.64
2019-05-23T04:15:37.634Z,95.61
2019-05-23T04:18:04.413Z,95.62
2019-05-23T04:20:32.528Z,95.68
2019-05-23T04:22:59.821Z,95.68
2019-05-23T04:25:26.583Z,95.62
2019-05-23T04:27:53.737Z,95.57
2019-05-23T04:30:20.841Z,95.62
2019-05-23T04:32:47.638Z,95.64
2019-05-23T04:35:15.094Z,95.64
2019-05-23T04:37:41.781Z,95.58
2019-05-23T04:40:10.552Z,95.06
2019-05-23T04:42:37.230Z,94.48
2019-05-23T04:45:05.428Z,94.05
2019-05-23T04:47:32.527Z,93.95
2019-05-23T04:49:59.985Z,93.55
2019-05-23T04:52:26.995Z,93.05
2019-05-23T04:54:53.647Z,93.46
2019-05-23T04:57:20.414Z,93.76
2019-05-23T04:59:47.623Z,94.07
2019-05-23T05:02:25.329Z,94.27
2019-05-23T05:04:44.027Z,94.46
2019-05-23T05:07:10.863Z,94.48
2019-05-23T05:09:37.983Z,94.66
2019-05-23T05:12:05.202Z,94.60
2019-05-23T05:14:32.425Z,94.36
2019-05-23T05:16:59.306Z,93.78
2019-05-23T05:19:26.427Z,93.45
2019-05-23T05:21:53.279Z,93.97
2019-05-23T05:24:20.360Z,92.71
2019-05-23T05:26:47.130Z,90.32
2019-05-23T05:29:14.032Z,88.05
2019-05-23T05:31:40.944Z,86.23
2019-05-23T05:34:07.631Z,82.66
2019-05-23T05:36:34.341Z,77.36
2019-05-23T05:39:01.139Z,74.93
2019-05-23T05:41:28.308Z,72.72
2019-05-23T05:43:54.983Z,75.44
2019-05-23T05:46:22.899Z,69.47
2019-05-23T05:48:49.843Z,63.64
2019-05-23T05:51:16.804Z,63.36
2019-05-23T05:53:44.035Z,63.78
2019-05-23T05:56:11.133Z,62.15
2019-05-23T05:58:37.892Z,60.45
2019-05-23T06:01:08.302Z,58.56
2019-05-23T06:03:35.374Z,55.84
2019-05-23T06:06:11.791Z,56.18
2019-05-23T06:08:39.977Z,55.12
2019-05-23T06:11:06.823Z,54.75
2019-05-23T06:13:33.979Z,53.28
2019-05-23T06:16:00.931Z,51.03
2019-05-23T06:18:27.627Z,50.67
2019-05-23T06:20:54.956Z,51.66
2019-05-23T06:23:22.503Z,50.08
2019-05-23T06:25:49.594Z,48.62
2019-05-23T06:28:17.863Z,46.63
2019-05-23T06:30:45.906Z,44.31
2019-05-23T06:33:22.693Z,40.87
2019-05-23T06:35:41.663Z,39.13
2019-05-23T06:38:08.431Z,37.93
2019-05-23T06:40:36.529Z,38.46
2019-05-23T06:43:03.762Z,37.44
2019-05-23T06:45:30.969Z,39.01
2019-05-23T06:47:57.749Z,40.09
2019-05-23T06:50:24.923Z,37.82
2019-05-23T06:52:51.823Z,35.34
2019-05-23T06:55:18.658Z,35.75
2019-05-23T06:57:45.401Z,34.44
2019-05-23T07:00:14.452Z,35.08
2019-05-23T07:02:42.043Z,33.84
2019-05-23T07:05:09.135Z,31.35
2019-05-23T07:07:36.750Z,30.52
2019-05-23T07:10:05.003Z,30.76
2019-05-23T07:12:32.149Z,29.62
2019-05-23T07:14:58.986Z,33.47
2019-05-23T07:17:26.643Z,32.41
2019-05-23T07:19:53.450Z,31.70
2019-05-23T07:22:21.146Z,29.93
2019-05-23T07:24:57.965Z,27.78
2019-05-23T07:27:18.108Z,29.45
2019-05-23T07:29:44.909Z,29.17
2019-05-23T07:32:11.788Z,28.86
2019-05-23T07:34:38.596Z,28.73
2019-05-23T07:37:05.275Z,29.63
2019-05-23T07:39:31.985Z,29.06
2019-05-23T07:41:58.567Z,26.66
2019-05-23T07:44:26.255Z,27.35
2019-05-23T07:46:53.520Z,27.00
2019-05-23T07:49:20.249Z,28.42
2019-05-23T07:51:46.932Z,29.81
2019-05-23T07:54:37.744Z,26.69
2019-05-23T07:57:07.721Z,24.61
2019-05-23T07:59:35.031Z,19.77
2019-05-23T08:02:14.166Z,22.04
2019-05-23T08:04:40.957Z,22.82
2019-05-23T08:07:09.440Z,20.85
2019-05-23T08:09:36.127Z,20.26
2019-05-23T08:12:03.351Z,18.16
2019-05-23T08:14:30.114Z,19.30
2019-05-23T08:16:56.996Z,20.58
2019-05-23T08:19:23.760Z,22.33
2019-05-23T08:21:50.541Z,24.39
2019-05-23T08:24:17.793Z,21.35
2019-05-23T08:26:46.980Z,23.96
2019-05-23T08:29:25.577Z,20.56
2019-05-23T08:31:42.669Z,18.27
2019-05-23T08:34:09.450Z,17.40
2019-05-23T08:36:36.231Z,17.80
2019-05-23T08:39:07.791Z,18.70
2019-05-23T08:41:34.564Z,17.75
2019-05-23T08:44:01.930Z,18.48
2019-05-23T08:46:29.106Z,17.05
2019-05-23T08:48:56.180Z,16.76
2019-05-23T08:51:22.877Z,16.80
2019-05-23T08:53:49.649Z,20.81
2019-05-23T08:56:19.479Z,17.31
2019-05-23T08:58:45.954Z,17.67
2019-05-23T09:01:12.743Z,17.09
2019-05-23T09:03:39.611Z,16.69
2019-05-23T09:06:08.198Z,14.98
2019-05-23T09:08:35.982Z,17.37
2019-05-23T09:11:02.811Z,16.30
2019-05-23T09:13:30.305Z,16.17
2019-05-23T09:15:56.997Z,17.50
2019-05-23T09:18:23.856Z,16.25
2019-05-23T09:20:50.520Z,16.83
2019-05-23T09:23:17.110Z,18.49
2019-05-23T09:25:43.996Z,17.03
2019-05-23T09:28:12.279Z,18.44
2019-05-23T09:30:39.061Z,20.90
2019-05-23T09:33:06.493Z,18.99
2019-05-23T09:35:33.859Z,20.02
2019-05-23T09:38:00.441Z,17.99
2019-05-23T09:40:27.214Z,18.72
2019-05-23T09:42:54.111Z,18.27
2019-05-23T09:45:20.918Z,17.21
2019-05-23T09:47:50.887Z,19.02
2019-05-23T09:50:19.660Z,18.23
2019-05-23T09:52:46.519Z,18.23
2019-05-23T09:55:13.486Z,17.04
2019-05-23T09:57:40.620Z,14.94
2019-05-23T10:00:10.186Z,14.27
2019-05-23T10:02:36.758Z,15.04
2019-05-23T10:05:05.668Z,20.04
2019-05-23T10:07:32.761Z,17.95
2019-05-23T10:09:59.455Z,17.30
2019-05-23T10:12:26.203Z,16.74
2019-05-23T10:14:52.951Z,17.54
2019-05-23T10:17:19.639Z,17.08
2019-05-23T10:19:46.435Z,14.98
2019-05-23T10:22:34.576Z,15.19
2019-05-23T10:25:01.369Z,14.93
2019-05-23T10:27:29.391Z,13.44
2019-05-23T10:29:56.150Z,13.08
2019-05-23T10:32:23.529Z,14.93
2019-05-23T10:34:50.293Z,17.36
2019-05-23T10:37:18.195Z,16.37
2019-05-23T10:39:50.602Z,14.90
2019-05-23T10:42:18.453Z,13.96
2019-05-23T10:44:45.333Z,13.10
2019-05-23T10:47:11.921Z,13.49
2019-05-23T10:49:41.080Z,13.64
2019-05-23T10:52:07.750Z,13.89
2019-05-23T10:54:34.536Z,14.96
2019-05-23T10:57:01.233Z,15.48
2019-05-23T10:59:27.901Z,13.94
2019-05-23T11:01:55.188Z,16.25
2019-05-23T11:04:21.825Z,18.05
2019-05-23T11:06:49.545Z,18.08
2019-05-23T11:09:16.421Z,18.62
2019-05-23T11:11:43.327Z,19.88
2019-05-23T11:14:10.405Z,18.59
2019-05-23T11:16:37.177Z,18.28
2019-05-23T11:19:04.768Z,19.80
2019-05-23T11:21:31.455Z,18.95
2019-05-23T11:23:59.506Z,18.13
2019-05-23T11:26:26.521Z,15.37
2019-05-23T11:28:53.400Z,16.40
2019-05-23T11:34:08.369Z,17.98
2019-05-23T11:36:36.715Z,15.76
2019-05-23T11:39:06.351Z,16.09
2019-05-23T11:41:33.547Z,20.94
2019-05-23T11:44:00.714Z,22.84
2019-05-23T11:46:30.180Z,23.90
2019-05-23T11:48:56.860Z,23.70
2019-05-23T11:51:25.622Z,24.99
2019-05-23T11:54:07.125Z,23.74
2019-05-23T11:56:21.553Z,19.89
2019-05-23T11:58:48.349Z,16.46
2019-05-23T12:01:40.628Z,17.51
2019-05-23T12:04:27.081Z,20.96
2019-05-23T12:06:58.273Z,22.54
2019-05-23T12:09:26.491Z,21.10
2019-05-23T12:11:53.379Z,19.79
2019-05-23T12:14:20.174Z,23.71
2019-05-23T12:16:47.876Z,22.66
2019-05-23T12:19:15.450Z,19.75
2019-05-23T12:21:42.168Z,18.06
2019-05-23T12:24:09.069Z,15.56
2019-05-23T12:26:35.859Z,15.91
2019-05-23T12:29:03.139Z,14.56
2019-05-23T12:31:29.712Z,13.01
2019-05-23T12:33:56.527Z,12.29
2019-05-23T12:36:23.684Z,11.89
2019-05-23T12:38:50.492Z,12.94
2019-05-23T12:41:19.468Z,13.12
2019-05-23T12:43:46.183Z,12.89
2019-05-23T12:46:13.021Z,12.12
2019-05-23T12:48:58.787Z,15.94
2019-05-23T12:51:29.823Z,13.88
2019-05-23T12:53:56.388Z,13.75
2019-05-23T12:56:24.338Z,17.96
2019-05-23T12:58:51.398Z,15.22
2019-05-23T13:01:39.186Z,16.25
2019-05-23T13:04:27.390Z,15.64
2019-05-23T13:06:58.267Z,17.83
2019-05-23T13:09:25.070Z,15.56
2019-05-23T13:11:52.044Z,17.45
2019-05-23T13:14:19.439Z,17.45
2019-05-23T13:16:46.531Z,16.67
2019-05-23T13:19:13.441Z,15.97
2019-05-23T13:21:40.279Z,16.75
2019-05-23T13:24:07.534Z,18.47
2019-05-23T13:26:34.308Z,17.89
2019-05-23T13:29:24.574Z,17.62
2019-05-23T13:31:51.117Z,16.65
2019-05-23T13:34:17.948Z,18.51
2019-05-23T13:36:45.040Z,18.83
2019-05-23T13:39:11.849Z,17.71
2019-05-23T13:41:38.633Z,15.58
2019-05-23T13:44:05.795Z,18.06
2019-05-23T13:46:32.997Z,18.85
2019-05-23T13:48:59.921Z,19.69
2019-05-23T13:51:26.736Z,18.24
2019-05-23T13:53:53.445Z,16.98
2019-05-23T13:56:20.310Z,17.31
2019-05-23T13:58:47.441Z,19.39
2019-05-23T14:01:14.261Z,21.75
2019-05-23T14:03:42.055Z,21.99
2019-05-23T14:06:08.882Z,22.77
2019-05-23T14:08:35.647Z,21.50
2019-05-23T14:11:02.648Z,22.32
2019-05-23T14:13:30.535Z,20.22
2019-05-23T14:15:57.508Z,22.13
2019-05-23T14:18:26.294Z,22.32
2019-05-23T14:20:53.190Z,20.98
2019-05-23T14:23:27.727Z,20.13
2019-05-23T14:25:54.825Z,20.86
2019-05-23T14:28:21.656Z,19.79
2019-05-23T14:31:10.944Z,20.79
2019-05-23T14:33:43.855Z,21.17
2019-05-23T14:36:18.718Z,21.22
2019-05-23T14:38:45.298Z,19.49
2019-05-23T14:41:12.169Z,20.37
2019-05-23T14:43:39.536Z,20.72
2019-05-23T14:46:08.873Z,21.13
2019-05-23T14:48:52.582Z,23.04
2019-05-23T14:51:32.359Z,22.08
2019-05-23T14:54:09.817Z,21.62
2019-05-23T14:56:37.131Z,19.24
2019-05-23T14:59:04.177Z,21.78
2019-05-23T15:01:32.889Z,22.90
2019-05-23T15:03:59.983Z,22.17
2019-05-23T15:06:27.592Z,21.91
2019-05-23T15:08:54.459Z,22.79
2019-05-23T15:11:21.297Z,21.34
2019-05-23T15:13:48.182Z,22.65
2019-05-23T15:16:16.012Z,22.46
2019-05-23T15:18:42.786Z,21.48
2019-05-23T15:21:09.579Z,21.97
2019-05-23T15:23:36.310Z,25.41
2019-05-23T15:26:21.535Z,26.13
2019-05-23T15:28:33.184Z,26.19
2019-05-23T15:30:59.879Z,27.04
2019-05-23T15:33:26.617Z,26.68
2019-05-23T15:35:53.346Z,27.35
2019-05-23T15:38:19.936Z,27.63
2019-05-23T15:40:46.750Z,26.89
2019-05-23T15:43:13.547Z,27.68
2019-05-23T15:45:40.389Z,27.97
2019-05-23T15:48:07.063Z,27.87
2019-05-23T15:50:39.858Z,28.44
2019-05-23T15:53:15.623Z,27.51
2019-05-23T15:56:26.121Z,28.04
2019-05-23T15:58:54.640Z,27.74
2019-05-23T16:01:30.631Z,27.39
2019-05-23T16:04:03.803Z,28.92
2019-05-23T16:06:32.531Z,28.61
2019-05-23T16:08:59.611Z,27.76
2019-05-23T16:11:26.608Z,27.51
2019-05-23T16:13:53.376Z,27.17
2019-05-23T16:16:20.294Z,26.16
2019-05-23T16:18:47.834Z,27.97
2019-05-23T16:21:15.037Z,27.43
2019-05-23T16:23:41.839Z,28.33
2019-05-23T16:26:11.631Z,29.21
2019-05-23T16:28:37.197Z,29.56
2019-05-23T16:31:04.014Z,29.77
2019-05-23T16:33:30.801Z,30.32
2019-05-23T16:35:57.650Z,30.75
2019-05-23T16:38:24.431Z,29.86
2019-05-23T16:40:51.223Z,29.66
2019-05-23T16:43:18.012Z,30.13
2019-05-23T16:45:44.978Z,30.17
2019-05-23T16:48:11.778Z,29.92
2019-05-23T16:50:38.591Z,29.08
2019-05-23T16:53:05.358Z,30.44
2019-05-23T16:55:57.382Z,30.54
2019-05-23T16:58:42.061Z,32.02
2019-05-23T17:01:28.562Z,30.92
2019-05-23T17:04:17.617Z,31.09
2019-05-23T17:06:50.754Z,31.41
2019-05-23T17:09:39.192Z,31.18
2019-05-23T17:12:27.528Z,30.57
2019-05-23T17:14:59.102Z,31.44
2019-05-23T17:18:02.468Z,33.12
2019-05-23T17:20:30.020Z,32.74
2019-05-23T17:23:05.707Z,32.62
2019-05-23T17:25:52.949Z,32.63
2019-05-23T17:28:26.654Z,33.49
2019-05-23T17:30:57.163Z,33.10
2019-05-23T17:33:23.665Z,33.20
2019-05-23T17:35:50.472Z,32.55
2019-05-23T17:38:17.303Z,32.21
2019-05-23T17:40:44.134Z,33.06
2019-05-23T17:43:11.434Z,33.16
2019-05-23T17:45:39.754Z,32.26
2019-05-23T17:48:06.612Z,32.71
2019-05-23T17:50:34.860Z,33.75
2019-05-23T17:53:02.021Z,33.60
2019-05-23T17:55:29.450Z,34.97
2019-05-23T17:57:57.013Z,34.74
2019-05-23T18:00:28.145Z,34.53
2019-05-23T18:02:54.943Z,41.03
2019-05-23T18:05:22.451Z,42.00
2019-05-23T18:07:49.233Z,43.18
2019-05-23T18:10:16.735Z,43.78
2019-05-23T18:12:43.624Z,44.59
2019-05-23T18:15:12.877Z,44.99
2019-05-23T18:17:39.573Z,45.77
2019-05-23T18:20:07.537Z,47.57
2019-05-23T18:22:36.437Z,47.94
2019-05-23T18:25:03.832Z,47.32
2019-05-23T18:27:31.335Z,48.25
2019-05-23T18:29:58.314Z,48.67
2019-05-23T18:32:27.689Z,48.85
2019-05-23T18:34:55.587Z,49.17
2019-05-23T18:37:22.580Z,49.64
2019-05-23T18:39:49.362Z,50.20
2019-05-23T18:42:16.978Z,50.45
2019-05-23T18:44:44.179Z,51.73
2019-05-23T18:47:17.549Z,51.99
2019-05-23T18:49:44.527Z,51.14
2019-05-23T18:52:11.430Z,51.67
2019-05-23T18:54:38.127Z,51.31
2019-05-23T18:57:04.922Z,51.38
2019-05-23T18:59:31.995Z,51.94
2019-05-23T19:01:58.798Z,52.22
2019-05-23T19:04:25.782Z,52.35
2019-05-23T19:06:53.090Z,53.45
2019-05-23T19:09:21.667Z,53.94
2019-05-23T19:11:48.470Z,54.14
2019-05-23T19:14:15.354Z,54.95
2019-05-23T19:16:42.160Z,55.03
2019-05-23T19:19:09.106Z,54.93
2019-05-23T19:21:36.081Z,55.07
2019-05-23T19:24:04.177Z,54.86
2019-05-23T19:26:30.982Z,54.52
2019-05-23T19:28:57.655Z,54.09
2019-05-23T19:31:25.488Z,54.17
2019-05-23T19:33:52.332Z,54.33
2019-05-23T19:36:19.325Z,55.15
2019-05-23T19:38:46.579Z,53.97
2019-05-23T19:41:13.392Z,55.61
2019-05-23T19:43:40.837Z,56.36
2019-05-23T19:46:07.624Z,56.78
2019-05-23T19:48:35.863Z,56.98
2019-05-23T19:51:02.871Z,58.17
2019-05-23T19:53:30.299Z,58.08
2019-05-23T19:55:57.338Z,58.02
2019-05-23T19:58:24.209Z,58.12
2019-05-23T20:00:51.079Z,58.10
2019-05-23T20:03:18.216Z,58.73
2019-05-23T20:05:45.490Z,58.37
2019-05-23T20:08:12.434Z,58.77
2019-05-23T20:10:39.973Z,58.58
2019-05-23T20:13:06.764Z,58.60
2019-05-23T20:15:33.759Z,57.46
2019-05-23T20:18:00.735Z,58.25
2019-05-23T20:20:27.734Z,59.07
2019-05-23T20:22:54.614Z,59.75
2019-05-23T20:25:21.738Z,58.33
2019-05-23T20:27:48.560Z,58.44
2019-05-23T20:30:59.675Z,58.41
2019-05-23T20:33:27.108Z,58.79
2019-05-23T20:35:54.281Z,59.64
2019-05-23T20:38:22.470Z,57.66
2019-05-23T20:40:49.147Z,58.56
2019-05-23T20:43:15.983Z,59.86
2019-05-23T20:45:42.793Z,59.83
2019-05-23T20:48:09.640Z,60.45
2019-05-23T20:50:36.409Z,59.44
2019-05-23T20:53:03.772Z,60.75
2019-05-23T20:55:30.578Z,59.54
2019-05-23T20:57:57.411Z,60.70
2019-05-23T21:00:36.327Z,60.95
2019-05-23T21:03:03.291Z,61.18
2019-05-23T21:05:31.489Z,61.51
2019-05-23T21:07:58.275Z,61.79
2019-05-23T21:10:44.998Z,62.18
2019-05-23T21:13:11.758Z,62.87
2019-05-23T21:15:40.840Z,62.83
2019-05-23T21:18:07.251Z,63.63
2019-05-23T21:20:34.061Z,63.92
2019-05-23T21:23:00.955Z,64.72
2019-05-23T21:25:28.292Z,65.51
2019-05-23T21:27:55.151Z,64.11
2019-05-23T21:30:21.855Z,64.19
2019-05-23T21:32:48.625Z,65.00
2019-05-23T21:35:15.260Z,65.81
2019-05-23T21:37:42.049Z,65.17
2019-05-23T21:40:13.435Z,64.44
2019-05-23T21:42:47.651Z,65.92
2019-05-23T21:45:08.955Z,64.66
2019-05-23T21:47:35.724Z,66.32
2019-05-23T21:50:02.875Z,66.96
2019-05-23T21:52:29.453Z,67.90
2019-05-23T21:54:56.246Z,67.43
2019-05-23T21:57:22.931Z,67.74
2019-05-23T21:59:49.687Z,68.77
2019-05-23T22:02:24.728Z,67.94
2019-05-23T22:04:56.485Z,68.96
2019-05-23T22:07:23.257Z,69.65
2019-05-23T22:09:50.054Z,70.28
2019-05-23T22:12:17.246Z,71.33
2019-05-23T22:14:45.135Z,72.06
2019-05-23T22:17:11.920Z,72.30
2019-05-23T22:19:38.618Z,72.96
2019-05-23T22:22:05.803Z,73.67
2019-05-23T22:24:32.603Z,74.05
2019-05-23T22:26:59.381Z,74.32
2019-05-23T22:29:26.173Z,74.74
2019-05-23T22:31:56.402Z,74.82
2019-05-23T22:34:37.271Z,73.87
2019-05-23T22:37:09.872Z,73.51
2019-05-23T22:39:36.558Z,73.22
2019-05-23T22:42:05.146Z,73.13
2019-05-23T22:44:31.944Z,73.45
2019-05-23T22:46:58.761Z,73.14
2019-05-23T22:49:25.440Z,72.93
2019-05-23T22:51:52.249Z,73.17
2019-05-23T22:54:19.055Z,73.66
2019-05-23T22:56:45.879Z,74.12
2019-05-23T22:59:12.652Z,74.12
2019-05-23T23:01:39.463Z,74.40
2019-05-23T23:04:06.682Z,75.37
2019-05-23T23:09:07.977Z,75.57
2019-05-23T23:11:34.867Z,76.22
2019-05-23T23:14:01.636Z,76.93
2019-05-23T23:16:28.334Z,77.33
2019-05-23T23:18:56.187Z,77.34
2019-05-23T23:21:22.874Z,78.07
2019-05-23T23:23:50.150Z,78.19
2019-05-23T23:26:16.940Z,78.71
2019-05-23T23:28:45.851Z,78.54
2019-05-23T23:31:12.866Z,79.00
2019-05-23T23:33:39.641Z,79.20
2019-05-23T23:36:06.320Z,79.36
2019-05-23T23:38:34.006Z,79.17
2019-05-23T23:41:00.685Z,79.73
2019-05-23T23:43:27.760Z,79.48
2019-05-23T23:46:12.551Z,79.59
2019-05-23T23:48:58.482Z,79.38
2019-05-23T23:51:43.254Z,79.18
2019-05-23T23:54:28.120Z,79.17
2019-05-23T23:57:13.465Z,80.07
2019-05-23T23:59:39.916Z,80.82
